createdAt,value
2022-12-08T00:00:22.951Z,0.45
2022-12-08T00:05:42.827Z,0.45
2022-12-08T00:10:49.789Z,0.48
2022-12-08T00:15:51.628Z,0.50
2022-12-08T00:20:57.415Z,0.53
2022-12-08T00:26:03.737Z,0.52
2022-12-08T00:31:10.827Z,0.50
2022-12-08T00:36:14.317Z,0.57
2022-12-08T00:41:18.993Z,0.62
2022-12-08T00:46:20.699Z,0.77
2022-12-08T00:51:22.341Z,0.86
2022-12-08T00:56:25.524Z,0.92
2022-12-08T01:01:27.910Z,0.93
2022-12-08T01:06:29.565Z,0.91
2022-12-08T01:11:31.553Z,0.85
2022-12-08T01:16:35.702Z,0.87
2022-12-08T01:21:37.314Z,0.81
2022-12-08T01:26:38.990Z,0.90
2022-12-08T01:31:40.614Z,0.94
2022-12-08T01:36:44.261Z,1.00
2022-12-08T01:41:47.662Z,1.06
2022-12-08T01:46:49.739Z,1.09
2022-12-08T01:52:09.625Z,1.11
2022-12-08T01:57:23.158Z,1.12
2022-12-08T02:02:34.193Z,1.14
2022-12-08T02:07:36.100Z,1.11
2022-12-08T02:12:37.941Z,1.10
2022-12-08T02:17:54.214Z,1.08
2022-12-08T02:23:12.405Z,1.07
2022-12-08T02:28:28.930Z,1.09
2022-12-08T02:34:08.122Z,1.08
2022-12-08T02:39:28.034Z,1.14
2022-12-08T02:44:41.325Z,1.12
2022-12-08T02:49:43.480Z,1.16
2022-12-08T02:54:50.362Z,1.21
2022-12-08T03:00:18.386Z,1.27
2022-12-08T03:05:49.150Z,1.36
2022-12-08T03:11:01.259Z,1.29
2022-12-08T03:16:07.112Z,1.34
2022-12-08T03:21:10.210Z,1.26
2022-12-08T03:26:23.585Z,1.26
2022-12-08T03:31:29.976Z,1.23
2022-12-08T03:36:32.055Z,1.20
2022-12-08T03:41:33.535Z,1.22
2022-12-08T03:46:35.008Z,1.23
2022-12-08T03:51:36.511Z,1.21
2022-12-08T03:56:39.287Z,1.28
2022-12-08T04:01:40.878Z,1.29
2022-12-08T04:06:42.489Z,1.34
2022-12-08T04:11:44.051Z,1.32
2022-12-08T04:16:45.983Z,1.31
2022-12-08T04:21:47.470Z,1.31
2022-12-08T04:26:49.778Z,1.31
2022-12-08T04:31:51.402Z,1.28
2022-12-08T04:36:52.911Z,1.27
2022-12-08T04:41:54.724Z,1.29
2022-12-08T04:46:56.601Z,1.28
2022-12-08T04:51:58.117Z,1.29
2022-12-08T04:56:59.792Z,1.30
2022-12-08T05:02:01.506Z,1.30
2022-12-08T05:07:03.359Z,1.31
2022-12-08T05:12:05.343Z,1.30
2022-12-08T05:17:09.760Z,1.29
2022-12-08T05:22:11.950Z,1.24
2022-12-08T05:27:13.403Z,1.20
2022-12-08T05:32:14.914Z,1.21
2022-12-08T05:37:16.727Z,1.19
2022-12-08T05:42:24.430Z,1.17
2022-12-08T05:47:28.856Z,1.23
2022-12-08T05:52:33.059Z,1.18
2022-12-08T05:57:34.501Z,1.22
2022-12-08T06:02:36.335Z,1.19
2022-12-08T06:07:38.593Z,1.19
2022-12-08T06:12:40.479Z,1.19
2022-12-08T06:17:41.933Z,1.25
2022-12-08T06:22:43.437Z,1.27
2022-12-08T06:27:44.906Z,1.19
2022-12-08T06:32:46.402Z,1.12
2022-12-08T06:37:47.933Z,1.04
2022-12-08T06:42:49.517Z,0.99
2022-12-08T06:47:51.251Z,0.98
2022-12-08T06:53:01.058Z,0.96
2022-12-08T06:58:06.171Z,0.93
2022-12-08T07:03:09.309Z,0.95
2022-12-08T07:08:10.890Z,0.92
2022-12-08T07:13:12.427Z,0.83
2022-12-08T07:18:14.341Z,0.77
2022-12-08T07:23:16.382Z,0.76
2022-12-08T07:28:17.838Z,0.68
2022-12-08T07:33:19.378Z,0.66
2022-12-08T07:38:20.875Z,0.58
2022-12-08T07:43:23.351Z,0.59
2022-12-08T07:48:24.800Z,0.64
2022-12-08T07:53:26.330Z,0.66
2022-12-08T07:58:27.791Z,0.67
2022-12-08T08:03:29.336Z,0.65
2022-12-08T08:08:31.566Z,0.58
2022-12-08T08:13:33.810Z,0.52
2022-12-08T08:18:37.579Z,0.49
2022-12-08T08:23:39.329Z,0.43
2022-12-08T08:28:40.883Z,0.39
2022-12-08T08:33:42.350Z,0.34
2022-12-08T08:38:44.217Z,0.35
2022-12-08T08:43:45.845Z,0.37
2022-12-08T08:48:47.537Z,0.33
2022-12-08T08:53:49.419Z,0.33
2022-12-08T08:58:53.183Z,0.34
2022-12-08T09:03:56.178Z,0.32
2022-12-08T09:08:57.741Z,0.32
2022-12-08T09:13:59.321Z,0.25
2022-12-08T09:19:02.241Z,0.23
2022-12-08T09:24:04.178Z,0.24
2022-12-08T09:29:05.743Z,0.23
2022-12-08T09:34:07.540Z,0.26
2022-12-08T09:39:09.380Z,0.29
2022-12-08T09:44:22.791Z,0.28
2022-12-08T09:49:38.198Z,0.33
2022-12-08T09:54:39.924Z,0.38
2022-12-08T09:59:47.767Z,0.64
2022-12-08T10:04:49.309Z,0.94
2022-12-08T10:10:20.681Z,0.94
2022-12-08T10:15:41.611Z,1.41
2022-12-08T10:20:45.263Z,1.57
2022-12-08T10:25:56.509Z,1.53
2022-12-08T10:30:58.294Z,1.64
2022-12-08T10:36:04.873Z,1.58
2022-12-08T10:41:11.451Z,1.68
2022-12-08T10:46:16.812Z,2.03
2022-12-08T10:51:24.542Z,2.29
2022-12-08T10:56:28.993Z,2.62
2022-12-08T11:01:37.954Z,2.89
2022-12-08T11:06:41.066Z,3.16
2022-12-08T11:11:51.543Z,3.14
2022-12-08T11:16:56.889Z,3.12
2022-12-08T11:21:58.758Z,2.95
2022-12-08T11:27:03.381Z,2.99
2022-12-08T11:32:12.539Z,3.24
2022-12-08T11:37:34.474Z,3.24
2022-12-08T11:42:53.405Z,3.27
2022-12-08T11:48:19.409Z,3.10
2022-12-08T11:53:29.051Z,3.05
2022-12-08T11:58:44.454Z,3.18
2022-12-08T12:03:53.690Z,3.12
2022-12-08T12:09:11.776Z,3.27
2022-12-08T12:14:28.566Z,3.27
2022-12-08T12:19:35.663Z,3.33
2022-12-08T12:24:39.016Z,3.36
2022-12-08T12:29:55.556Z,3.44
2022-12-08T12:35:00.421Z,3.43
2022-12-08T12:40:06.282Z,3.16
2022-12-08T12:45:16.943Z,3.16
2022-12-08T12:50:33.903Z,3.23
2022-12-08T12:55:59.889Z,3.31
2022-12-08T13:01:10.531Z,3.19
2022-12-08T13:06:15.226Z,3.08
2022-12-08T13:11:17.101Z,2.88
2022-12-08T13:16:24.134Z,2.91
2022-12-08T13:21:33.096Z,2.91
2022-12-08T13:26:44.498Z,2.77
2022-12-08T13:31:56.216Z,2.69
2022-12-08T13:37:15.897Z,2.58
2022-12-08T13:42:33.592Z,2.47
2022-12-08T13:48:13.613Z,2.32
2022-12-08T13:58:43.318Z,2.11
2022-12-08T14:04:20.428Z,2.01
2022-12-08T14:09:16.008Z,1.85
2022-12-08T14:14:45.799Z,1.79
2022-12-08T14:19:45.294Z,1.67
2022-12-08T14:24:48.844Z,1.55
2022-12-08T14:29:53.995Z,1.42
2022-12-08T14:34:57.366Z,1.37
2022-12-08T14:40:04.050Z,1.24
2022-12-08T14:45:11.286Z,1.13
2022-12-08T14:50:42.694Z,1.00
2022-12-08T14:55:47.479Z,0.87
2022-12-08T15:00:52.266Z,0.73
2022-12-08T15:05:58.522Z,0.54
2022-12-08T15:11:21.680Z,0.36
2022-12-08T15:16:42.788Z,0.19
2022-12-08T15:21:45.917Z,0.03
2022-12-08T15:26:49.928Z,-0.12
2022-12-08T15:31:53.761Z,-0.28
2022-12-08T15:36:55.367Z,-0.41
2022-12-08T15:41:56.938Z,-0.52
2022-12-08T15:46:59.382Z,-0.62
2022-12-08T15:52:11.175Z,-0.73
2022-12-08T15:57:29.722Z,-0.80
2022-12-08T16:03:13.155Z,-0.93
2022-12-08T16:08:11.927Z,-1.04
2022-12-08T16:13:56.847Z,-1.14
2022-12-08T16:18:59.239Z,-1.29
2022-12-08T16:24:05.975Z,-1.37
2022-12-08T16:29:18.866Z,-1.43
2022-12-08T16:34:20.335Z,-1.45
2022-12-08T16:39:21.871Z,-1.44
2022-12-08T16:44:23.416Z,-1.39
2022-12-08T16:49:24.892Z,-1.39
2022-12-08T16:54:26.352Z,-1.43
2022-12-08T16:59:27.834Z,-1.46
2022-12-08T17:04:32.166Z,-1.51
2022-12-08T17:09:34.044Z,-1.56
2022-12-08T17:14:35.563Z,-1.50
2022-12-08T17:19:37.579Z,-1.51
2022-12-08T17:24:39.103Z,-1.51
2022-12-08T17:29:40.601Z,-1.43
2022-12-08T17:34:42.162Z,-1.47
2022-12-08T17:39:43.690Z,-1.46
2022-12-08T17:44:46.547Z,-1.47
2022-12-08T17:49:48.057Z,-1.46
2022-12-08T17:54:49.642Z,-1.39
2022-12-08T17:59:51.096Z,-1.34
2022-12-08T18:04:52.902Z,-1.21
2022-12-08T18:09:54.777Z,-1.28
2022-12-08T18:14:56.368Z,-1.36
2022-12-08T18:19:57.946Z,-1.35
2022-12-08T18:24:59.501Z,-1.36
2022-12-08T18:30:01.909Z,-1.41
2022-12-08T18:35:03.694Z,-1.51
2022-12-08T18:40:05.925Z,-1.50
2022-12-08T18:45:08.279Z,-1.44
2022-12-08T18:50:11.698Z,-1.38
2022-12-08T18:55:13.675Z,-1.40
2022-12-08T19:00:18.062Z,-1.49
2022-12-08T19:05:19.762Z,-1.51
2022-12-08T19:10:21.333Z,-1.44
2022-12-08T19:15:22.947Z,-1.30
2022-12-08T19:20:24.482Z,-1.26
2022-12-08T19:25:27.178Z,-1.17
2022-12-08T19:30:28.693Z,-1.13
2022-12-08T19:35:30.219Z,-1.14
2022-12-08T19:40:50.690Z,-1.20
2022-12-08T19:45:52.265Z,-1.27
2022-12-08T19:50:53.785Z,-1.31
2022-12-08T19:55:55.257Z,-1.25
2022-12-08T20:00:56.874Z,-1.15
2022-12-08T20:05:58.375Z,-1.04
2022-12-08T20:10:59.875Z,-0.95
2022-12-08T20:16:01.443Z,-0.88
2022-12-08T20:21:03.832Z,-0.81
2022-12-08T20:26:08.312Z,-0.72
2022-12-08T20:31:18.165Z,-0.57
2022-12-08T20:36:21.870Z,-0.52
2022-12-08T20:41:23.706Z,-0.51
2022-12-08T20:46:25.310Z,-0.48
2022-12-08T20:51:31.896Z,-0.46
2022-12-08T20:56:34.098Z,-0.45
2022-12-08T21:01:35.846Z,-0.45
2022-12-08T21:06:37.742Z,-0.47
2022-12-08T21:11:40.183Z,-0.39
2022-12-08T21:16:42.134Z,-0.42
2022-12-08T21:21:45.796Z,-0.43
2022-12-08T21:26:48.035Z,-0.46
2022-12-08T21:31:50.276Z,-0.48
2022-12-08T21:36:52.939Z,-0.51
2022-12-08T21:42:13.698Z,-0.57
2022-12-08T21:47:15.972Z,-0.60
2022-12-08T21:52:17.580Z,-0.66
2022-12-08T21:57:19.341Z,-0.64
2022-12-08T22:02:22.832Z,-0.62
2022-12-08T22:07:24.777Z,-0.63
2022-12-08T22:12:26.739Z,-0.59
2022-12-08T22:17:28.987Z,-0.56
2022-12-08T22:22:33.633Z,-0.49
2022-12-08T22:27:35.149Z,-0.47
2022-12-08T22:32:37.171Z,-0.40
2022-12-08T22:37:38.982Z,-0.36
2022-12-08T22:42:41.224Z,-0.38
2022-12-08T22:47:42.871Z,-0.33
2022-12-08T22:52:44.504Z,-0.32
2022-12-08T22:57:46.741Z,-0.30
2022-12-08T23:02:48.609Z,-0.27
2022-12-08T23:07:50.883Z,-0.23
2022-12-08T23:12:53.273Z,-0.23
2022-12-08T23:17:55.008Z,-0.23
2022-12-08T23:22:56.840Z,-0.21
2022-12-08T23:27:58.843Z,-0.13
2022-12-08T23:33:00.641Z,-0.13
2022-12-08T23:38:02.497Z,-0.11
2022-12-08T23:43:06.054Z,-0.13
2022-12-08T23:48:07.531Z,-0.10
2022-12-08T23:53:09.559Z,-0.16
2022-12-08T23:58:11.644Z,-0.16
